createdAt,value
2022-08-16T00:02:33.266Z,96014.13
2022-08-16T00:05:01.567Z,96011.97
2022-08-16T00:07:29.756Z,96014.66
2022-08-16T00:09:59.571Z,96012.97
2022-08-16T00:12:29.899Z,96018.69
2022-08-16T00:15:00.312Z,96020.88
2022-08-16T00:17:28.975Z,96021.72
2022-08-16T00:20:16.922Z,96031.28
2022-08-16T00:22:49.549Z,96032.94
2022-08-16T00:26:36.037Z,96019.59
2022-08-16T00:28:11.640Z,96032.94
2022-08-16T00:30:40.148Z,96021.59
2022-08-16T00:33:10.199Z,96030.63
2022-08-16T00:35:39.329Z,96035.31
2022-08-16T00:38:40.162Z,96032.63
2022-08-16T00:40:57.502Z,96032.00
2022-08-16T00:43:43.298Z,96026.81
2022-08-16T00:46:33.532Z,96025.28
2022-08-16T00:49:03.326Z,96024.63
2022-08-16T00:51:31.630Z,96028.31
2022-08-16T00:53:59.618Z,96023.13
2022-08-16T00:56:56.230Z,96026.00
2022-08-16T00:59:23.937Z,96029.00
2022-08-16T01:01:53.157Z,96022.50
2022-08-16T01:04:30.341Z,96027.84
2022-08-16T01:07:01.805Z,96029.38
2022-08-16T01:09:33.288Z,96034.34
2022-08-16T01:12:08.692Z,96031.88
2022-08-16T01:14:47.098Z,96027.38
2022-08-16T01:17:19.322Z,96026.06
2022-08-16T01:19:51.164Z,96035.53
2022-08-16T01:22:48.280Z,96030.03
2022-08-16T01:25:21.642Z,96034.84
2022-08-16T01:27:53.261Z,96036.97
2022-08-16T01:30:27.542Z,96032.94
2022-08-16T01:33:02.360Z,96034.44
2022-08-16T01:35:46.927Z,96025.88
2022-08-16T01:38:25.830Z,96029.00
2022-08-16T01:41:03.487Z,96026.44
2022-08-16T01:43:34.280Z,96019.91
2022-08-16T01:46:37.732Z,96022.22
2022-08-16T01:49:15.594Z,96026.72
2022-08-16T01:51:48.833Z,96022.03
2022-08-16T01:54:30.674Z,96026.41
2022-08-16T01:57:02.218Z,96033.38
2022-08-16T01:59:32.503Z,96024.72
2022-08-16T02:02:00.991Z,96023.06
2022-08-16T02:04:49.539Z,96029.69
2022-08-16T02:07:23.684Z,96033.84
2022-08-16T02:09:58.687Z,96027.94
2022-08-16T02:12:51.083Z,96027.31
2022-08-16T02:15:27.103Z,96035.03
2022-08-16T02:17:58.407Z,96030.22
2022-08-16T02:20:28.159Z,96034.22
2022-08-16T02:22:57.404Z,96034.59
2022-08-16T02:25:47.467Z,96028.41
2022-08-16T02:28:19.330Z,96023.88
2022-08-16T02:30:51.633Z,96021.38
2022-08-16T02:33:24.761Z,96025.75
2022-08-16T02:36:14.232Z,96022.69
2022-08-16T02:39:00.476Z,96009.06
2022-08-16T02:41:28.528Z,96015.06
2022-08-16T02:44:00.080Z,96015.06
2022-08-16T02:46:30.133Z,96023.41
2022-08-16T02:49:03.903Z,96024.25
2022-08-16T02:51:34.150Z,96019.25
2022-08-16T02:54:04.205Z,96010.41
2022-08-16T02:56:34.165Z,96010.41
2022-08-16T02:59:11.752Z,96002.56
2022-08-16T03:01:43.303Z,95999.44
2022-08-16T03:04:41.413Z,95997.75
2022-08-16T03:07:14.761Z,95989.66
2022-08-16T03:09:45.755Z,95992.13
2022-08-16T03:12:19.271Z,95996.19
2022-08-16T03:14:50.403Z,95982.19
2022-08-16T03:17:21.916Z,95991.41
2022-08-16T03:20:02.551Z,95991.47
2022-08-16T03:26:14.390Z,95985.69
2022-08-16T03:28:42.811Z,95986.50
2022-08-16T03:31:12.511Z,95987.22
2022-08-16T03:33:43.007Z,95987.06
2022-08-16T03:36:29.808Z,95986.22
2022-08-16T03:39:03.410Z,95982.38
2022-08-16T03:41:49.834Z,95979.03
2022-08-16T03:44:40.793Z,95978.59
2022-08-16T03:47:10.611Z,95990.47
2022-08-16T03:49:40.945Z,95974.59
2022-08-16T03:52:12.315Z,95987.59
2022-08-16T03:54:53.357Z,95983.94
2022-08-16T03:57:31.730Z,95986.41
2022-08-16T04:00:35.473Z,95985.84
2022-08-16T04:03:08.723Z,95988.91
2022-08-16T04:05:44.317Z,95993.03
2022-08-16T04:08:22.788Z,95990.38
2022-08-16T04:10:57.895Z,95997.19
2022-08-16T04:14:00.154Z,95991.84
2022-08-16T04:16:26.522Z,95984.88
2022-08-16T04:19:04.606Z,95990.88
2022-08-16T04:21:35.121Z,95998.88
2022-08-16T04:24:03.891Z,95996.81
2022-08-16T04:26:37.033Z,95990.28
2022-08-16T04:29:23.552Z,95996.50
2022-08-16T04:31:56.740Z,95999.81
2022-08-16T04:34:32.362Z,95995.75
2022-08-16T04:37:02.216Z,96001.75
2022-08-16T04:39:36.653Z,96002.22
2022-08-16T04:42:15.526Z,96010.03
2022-08-16T04:44:53.210Z,96017.41
2022-08-16T04:47:31.690Z,96018.91
2022-08-16T04:50:04.950Z,96015.06
2022-08-16T04:52:35.839Z,96015.88
2022-08-16T04:55:07.935Z,96026.41
2022-08-16T04:57:37.866Z,96028.03
2022-08-16T05:00:30.560Z,96022.53
2022-08-16T05:02:58.886Z,96027.66
2022-08-16T05:05:36.910Z,96024.44
2022-08-16T05:08:29.044Z,96028.59
2022-08-16T05:11:08.936Z,96035.44
2022-08-16T05:13:42.397Z,96036.09
2022-08-16T05:16:23.236Z,96041.91
2022-08-16T05:19:13.288Z,96040.06
2022-08-16T05:22:03.401Z,96036.19
2022-08-16T05:24:34.238Z,96029.31
2022-08-16T05:27:11.314Z,96027.06
2022-08-16T05:29:57.409Z,96036.41
2022-08-16T05:32:32.787Z,96030.69
2022-08-16T05:35:11.037Z,96026.63
2022-08-16T05:37:45.159Z,96031.25
2022-08-16T05:40:16.208Z,96024.53
2022-08-16T05:42:49.445Z,96034.84
2022-08-16T05:45:21.942Z,96028.88
2022-08-16T05:48:00.073Z,96027.50
2022-08-16T05:50:38.230Z,96035.16
2022-08-16T05:53:11.232Z,96031.47
2022-08-16T05:55:52.116Z,96039.31
2022-08-16T05:58:32.842Z,96038.75
2022-08-16T06:01:02.736Z,96041.44
2022-08-16T06:03:32.030Z,96043.72
2022-08-16T06:06:05.325Z,96039.13
2022-08-16T06:08:42.336Z,96043.91
2022-08-16T06:11:14.837Z,96044.19
2022-08-16T06:13:48.167Z,96051.28
2022-08-16T06:16:21.726Z,96053.22
2022-08-16T06:18:53.791Z,96049.59
2022-08-16T06:21:23.933Z,96045.53
2022-08-16T06:24:01.267Z,96048.47
2022-08-16T06:26:36.931Z,96046.06
2022-08-16T06:29:07.702Z,96050.84
2022-08-16T06:31:46.820Z,96053.78
2022-08-16T06:34:53.096Z,96064.63
2022-08-16T06:37:07.458Z,96052.78
2022-08-16T06:39:49.765Z,96056.75
2022-08-16T06:42:57.186Z,96054.69
2022-08-16T06:45:46.380Z,96052.91
2022-08-16T06:48:21.247Z,96042.69
2022-08-16T06:51:02.729Z,96052.84
2022-08-16T06:53:35.628Z,96058.53
2022-08-16T06:56:14.582Z,96054.06
2022-08-16T06:58:58.407Z,96056.16
2022-08-16T07:01:44.987Z,96054.53
2022-08-16T07:04:31.892Z,96062.22
2022-08-16T07:07:03.328Z,96062.72
2022-08-16T07:09:32.637Z,96070.38
2022-08-16T07:12:03.210Z,96067.75
2022-08-16T07:14:35.169Z,96058.13
2022-08-16T07:17:08.226Z,96055.09
2022-08-16T07:20:03.563Z,96054.13
2022-08-16T07:22:39.707Z,96063.50
2022-08-16T07:25:28.425Z,96053.00
2022-08-16T07:27:59.261Z,96050.72
2022-08-16T07:30:45.568Z,96054.69
2022-08-16T07:33:51.864Z,96049.75
2022-08-16T07:36:14.894Z,96038.47
2022-08-16T07:38:52.244Z,96041.59
2022-08-16T07:41:20.748Z,96044.50
2022-08-16T07:43:55.820Z,96051.16
2022-08-16T07:46:38.402Z,96059.50
2022-08-16T07:49:32.337Z,96055.34
2022-08-16T07:52:01.412Z,96055.78
2022-08-16T07:54:49.118Z,96057.06
2022-08-16T07:57:21.359Z,96063.66
2022-08-16T07:59:57.265Z,96061.78
2022-08-16T08:02:27.468Z,96063.53
2022-08-16T08:04:58.127Z,96072.38
2022-08-16T08:07:29.209Z,96074.91
2022-08-16T08:10:01.558Z,96079.66
2022-08-16T08:12:36.146Z,96081.75
2022-08-16T08:15:12.108Z,96075.38
2022-08-16T08:17:44.130Z,96082.00
2022-08-16T08:20:28.367Z,96081.00
2022-08-16T08:23:00.768Z,96087.03
2022-08-16T08:25:51.967Z,96085.38
2022-08-16T08:28:20.518Z,96091.78
2022-08-16T08:31:01.643Z,96091.56
2022-08-16T08:33:33.876Z,96089.09
2022-08-16T08:36:05.145Z,96084.75
2022-08-16T08:38:42.201Z,96093.25
2022-08-16T08:41:15.476Z,96098.22
2022-08-16T08:43:50.354Z,96095.72
2022-08-16T08:46:22.803Z,96093.25
2022-08-16T08:48:59.478Z,96092.00
2022-08-16T08:51:31.897Z,96098.41
2022-08-16T08:54:06.609Z,96096.34
2022-08-16T08:56:37.437Z,96100.25
2022-08-16T08:59:16.402Z,96101.47
2022-08-16T09:01:57.032Z,96100.47
2022-08-16T09:04:29.650Z,96102.94
2022-08-16T09:07:01.455Z,96099.66
2022-08-16T09:09:41.089Z,96101.28
2022-08-16T09:12:35.341Z,96099.84
2022-08-16T09:15:06.577Z,96105.25
2022-08-16T09:17:51.761Z,96106.28
2022-08-16T09:20:23.723Z,96108.75
2022-08-16T09:22:54.652Z,96100.69
2022-08-16T09:25:56.144Z,96105.03
2022-08-16T09:29:13.821Z,96099.88
2022-08-16T09:31:20.133Z,96095.53
2022-08-16T09:33:51.963Z,96100.88
2022-08-16T09:36:31.535Z,96102.72
2022-08-16T09:39:02.155Z,96095.19
2022-08-16T09:41:31.690Z,96096.22
2022-08-16T09:44:02.567Z,96104.31
2022-08-16T09:46:49.873Z,96106.56
2022-08-16T09:49:20.852Z,96096.41
2022-08-16T09:51:54.550Z,96103.25
2022-08-16T09:54:32.185Z,96099.28
2022-08-16T09:57:01.710Z,96107.38
2022-08-16T09:59:31.214Z,96097.78
2022-08-16T10:02:25.846Z,96099.19
2022-08-16T10:04:57.423Z,96102.94
2022-08-16T10:07:26.261Z,96093.22
2022-08-16T10:10:13.199Z,96097.31
2022-08-16T10:13:01.251Z,96098.38
2022-08-16T10:15:30.183Z,96100.91
2022-08-16T10:17:59.954Z,96096.72
2022-08-16T10:20:34.571Z,96096.53
2022-08-16T10:23:07.173Z,96094.25
2022-08-16T10:27:18.204Z,96108.78
2022-08-16T10:28:28.571Z,96098.00
2022-08-16T10:30:59.410Z,96090.53
2022-08-16T10:33:29.346Z,96100.06
2022-08-16T10:36:03.315Z,96100.41
2022-08-16T10:38:33.237Z,96097.53
2022-08-16T10:41:06.997Z,96102.03
2022-08-16T10:43:36.420Z,96101.97
2022-08-16T10:46:33.795Z,96105.84
2022-08-16T10:48:56.064Z,96111.16
2022-08-16T10:51:33.609Z,96109.69
2022-08-16T10:54:05.015Z,96108.69
2022-08-16T10:56:51.361Z,96111.72
2022-08-16T10:59:32.607Z,96104.41
2022-08-16T11:02:58.819Z,96098.41
2022-08-16T11:05:10.730Z,96100.44
2022-08-16T11:07:43.728Z,96100.69
2022-08-16T11:10:57.048Z,96102.91
2022-08-16T11:15:59.178Z,96098.59
2022-08-16T11:19:04.618Z,96104.47
2022-08-16T11:21:28.834Z,96105.38
2022-08-16T11:23:59.853Z,96103.84
2022-08-16T11:26:28.675Z,96103.75
2022-08-16T11:29:13.883Z,96096.47
2022-08-16T11:31:45.823Z,96102.19
2022-08-16T11:34:21.855Z,96098.03
2022-08-16T11:36:53.907Z,96095.56
2022-08-16T11:39:31.853Z,96089.56
2022-08-16T11:42:02.496Z,96097.84
2022-08-16T11:44:52.313Z,96083.50
2022-08-16T11:47:18.650Z,96087.84
2022-08-16T11:49:46.566Z,96085.97
2022-08-16T11:52:17.541Z,96091.75
2022-08-16T11:54:56.832Z,96095.91
2022-08-16T11:57:25.156Z,96085.09
2022-08-16T11:59:54.955Z,96086.66
2022-08-16T12:02:31.318Z,96086.81
2022-08-16T12:05:01.178Z,96088.31
2022-08-16T12:07:29.455Z,96089.56
2022-08-16T12:10:02.753Z,96087.22
2022-08-16T12:12:32.748Z,96088.63
2022-08-16T12:15:02.157Z,96088.00
2022-08-16T12:17:32.371Z,96080.88
2022-08-16T12:20:00.568Z,96078.53
2022-08-16T12:22:29.143Z,96069.00
2022-08-16T12:24:57.214Z,96073.00
2022-08-16T12:27:27.445Z,96065.75
2022-08-16T12:29:59.146Z,96071.38
2022-08-16T12:32:39.524Z,96065.75
2022-08-16T12:35:14.628Z,96069.06
2022-08-16T12:37:46.227Z,96056.72
2022-08-16T12:40:24.818Z,96061.56
2022-08-16T12:43:01.253Z,96063.34
2022-08-16T12:45:32.055Z,96049.75
2022-08-16T12:48:34.981Z,96054.00
2022-08-16T12:51:04.900Z,96049.94
2022-08-16T12:53:42.805Z,96053.97
2022-08-16T12:56:13.851Z,96054.94
2022-08-16T12:58:48.614Z,96051.88
2022-08-16T13:01:18.489Z,96054.72
2022-08-16T13:03:46.715Z,96050.66
2022-08-16T13:06:20.198Z,96045.13
2022-08-16T13:09:02.477Z,96052.09
2022-08-16T13:11:37.817Z,96049.63
2022-08-16T13:14:30.907Z,96052.19
2022-08-16T13:16:58.770Z,96048.56
2022-08-16T13:19:35.126Z,96045.88
2022-08-16T13:22:18.721Z,96035.41
2022-08-16T13:24:47.779Z,96038.69
2022-08-16T13:27:16.295Z,96034.72
2022-08-16T13:29:46.767Z,96030.53
2022-08-16T13:32:40.135Z,96021.03
2022-08-16T13:35:11.667Z,96029.00
2022-08-16T13:37:41.796Z,96022.53
2022-08-16T13:40:19.600Z,96018.72
2022-08-16T13:42:49.547Z,96029.25
2022-08-16T13:45:20.228Z,96012.22
2022-08-16T13:47:52.868Z,96015.03
2022-08-16T13:50:31.159Z,96014.00
2022-08-16T13:53:09.572Z,96017.91
2022-08-16T13:55:37.571Z,96020.69
2022-08-16T13:58:37.433Z,96012.47
2022-08-16T14:00:59.015Z,96009.75
2022-08-16T14:03:27.336Z,96008.22
2022-08-16T14:05:58.599Z,96010.84
2022-08-16T14:08:27.466Z,96008.72
2022-08-16T14:10:55.534Z,95998.81
2022-08-16T14:13:23.926Z,96003.91
2022-08-16T14:15:53.340Z,96010.53
2022-08-16T14:18:22.841Z,95999.53
2022-08-16T14:20:58.906Z,96002.50
2022-08-16T14:23:27.058Z,96001.91
2022-08-16T14:25:57.186Z,96005.81
2022-08-16T14:28:25.883Z,96007.44
2022-08-16T14:30:55.142Z,96002.38
2022-08-16T14:33:24.471Z,96003.09
2022-08-16T14:35:54.826Z,95998.97
2022-08-16T14:38:23.789Z,96004.72
2022-08-16T14:40:55.054Z,95995.19
2022-08-16T14:43:24.852Z,95994.50
2022-08-16T14:45:54.897Z,95997.78
2022-08-16T14:48:26.205Z,96003.44
2022-08-16T14:50:55.369Z,95994.28
2022-08-16T14:53:24.768Z,95996.84
2022-08-16T14:55:55.127Z,95992.59
2022-08-16T14:58:34.688Z,95990.63
2022-08-16T15:01:05.441Z,95989.69
2022-08-16T15:03:37.504Z,95987.19
2022-08-16T15:06:06.094Z,95986.59
2022-08-16T15:08:37.441Z,95995.00
2022-08-16T15:11:08.498Z,95983.09
2022-08-16T15:13:36.979Z,95993.72
2022-08-16T15:16:05.349Z,95986.03
2022-08-16T15:18:35.136Z,95993.44
2022-08-16T15:21:04.744Z,95982.88
2022-08-16T15:23:34.013Z,95979.78
2022-08-16T15:26:04.218Z,95989.31
2022-08-16T15:28:38.005Z,95979.69
2022-08-16T15:31:09.262Z,95983.69
2022-08-16T15:33:43.258Z,95987.59
2022-08-16T15:36:18.242Z,95986.72
2022-08-16T15:39:03.089Z,95992.63
2022-08-16T15:41:58.498Z,95984.97
2022-08-16T15:44:45.116Z,95990.63
2022-08-16T15:47:25.938Z,95989.44
2022-08-16T15:49:56.465Z,95990.50
2022-08-16T15:52:29.347Z,95992.25
2022-08-16T15:54:58.959Z,95986.72
2022-08-16T15:57:30.313Z,95984.75
2022-08-16T16:00:15.004Z,95984.03
2022-08-16T16:02:43.729Z,95986.84
2022-08-16T16:05:13.998Z,95990.88
2022-08-16T16:07:56.631Z,95986.25
2022-08-16T16:10:32.279Z,95990.16
2022-08-16T16:13:01.756Z,95989.59
2022-08-16T16:15:34.171Z,95996.53
2022-08-16T16:18:05.223Z,95992.63
2022-08-16T16:20:43.768Z,95986.19
2022-08-16T16:23:12.340Z,95991.59
2022-08-16T16:25:44.141Z,95993.94
2022-08-16T16:28:46.375Z,95992.28
2022-08-16T16:31:04.670Z,95993.34
2022-08-16T16:33:34.101Z,95999.47
2022-08-16T16:36:06.993Z,95993.91
2022-08-16T16:38:35.567Z,95992.72
2022-08-16T16:41:09.298Z,95990.72
2022-08-16T16:43:40.601Z,95991.19
2022-08-16T16:46:32.814Z,95989.06
2022-08-16T16:48:58.560Z,95999.69
2022-08-16T16:51:29.100Z,95995.41
2022-08-16T16:53:57.561Z,95996.59
2022-08-16T16:56:31.058Z,95993.91
2022-08-16T16:59:04.617Z,95997.91
2022-08-16T17:01:57.755Z,95995.19
2022-08-16T17:04:31.657Z,96000.63
2022-08-16T17:07:02.155Z,96001.31
2022-08-16T17:09:30.896Z,95994.25
2022-08-16T17:11:59.737Z,96002.38
2022-08-16T17:14:32.825Z,96007.44
2022-08-16T17:17:06.371Z,96003.91
2022-08-16T17:19:40.286Z,95998.38
2022-08-16T17:22:14.344Z,95996.69
2022-08-16T17:24:50.730Z,96000.69
2022-08-16T17:27:32.485Z,96001.53
2022-08-16T17:30:15.539Z,95997.06
2022-08-16T17:32:48.225Z,96000.81
2022-08-16T17:35:19.480Z,96000.69
2022-08-16T17:37:51.588Z,96003.03
2022-08-16T17:40:40.346Z,96006.78
2022-08-16T17:43:12.578Z,96011.00
2022-08-16T17:45:42.760Z,96015.59
2022-08-16T17:48:11.125Z,96013.38
2022-08-16T17:50:40.171Z,96007.38
2022-08-16T17:53:10.426Z,96016.34
2022-08-16T17:55:40.856Z,96017.06
2022-08-16T17:58:22.990Z,96021.91
2022-08-16T18:00:54.515Z,96017.78
2022-08-16T18:04:02.945Z,96012.19
2022-08-16T18:06:18.548Z,96023.09
2022-08-16T18:08:49.024Z,96015.72
2022-08-16T18:11:25.589Z,96020.53
2022-08-16T18:13:55.349Z,96024.13
2022-08-16T18:16:24.025Z,96014.59
2022-08-16T18:18:51.970Z,96017.16
2022-08-16T18:21:37.422Z,96010.56
2022-08-16T18:24:07.237Z,96016.03
2022-08-16T18:26:35.238Z,96019.41
2022-08-16T18:29:03.154Z,96020.09
2022-08-16T18:31:32.073Z,96019.13
2022-08-16T18:34:01.388Z,96017.09
2022-08-16T18:36:29.543Z,96023.38
2022-08-16T18:38:57.653Z,96019.72
2022-08-16T18:41:27.956Z,96015.00
2022-08-16T18:44:26.604Z,96023.56
2022-08-16T18:46:50.865Z,96021.94
2022-08-16T18:49:19.745Z,96028.03
2022-08-16T18:51:47.710Z,96030.56
2022-08-16T18:54:18.445Z,96040.00
2022-08-16T18:56:56.828Z,96037.16
2022-08-16T18:59:28.606Z,96039.69
2022-08-16T19:01:59.795Z,96038.94
2022-08-16T19:04:56.681Z,96043.56
2022-08-16T19:07:20.040Z,96041.94
2022-08-16T19:09:48.030Z,96045.97
2022-08-16T19:12:17.309Z,96046.84
2022-08-16T19:15:08.070Z,96048.31
2022-08-16T19:17:39.852Z,96041.31
2022-08-16T19:20:10.922Z,96048.44
2022-08-16T19:25:48.103Z,96055.13
2022-08-16T19:28:21.903Z,96061.38
2022-08-16T19:31:12.500Z,96063.50
2022-08-16T19:33:41.434Z,96066.84
2022-08-16T19:36:32.041Z,96065.63
2022-08-16T19:39:08.958Z,96062.53
2022-08-16T19:41:38.807Z,96062.75
2022-08-16T19:44:08.996Z,96062.78
2022-08-16T19:46:37.876Z,96064.88
2022-08-16T19:49:06.638Z,96063.44
2022-08-16T19:51:34.512Z,96065.94
2022-08-16T19:54:02.658Z,96059.75
2022-08-16T19:56:30.703Z,96061.84
2022-08-16T20:01:49.323Z,96065.38
2022-08-16T20:04:17.284Z,96064.56
2022-08-16T20:06:45.286Z,96067.25
2022-08-16T20:09:15.086Z,96064.19
2022-08-16T20:11:44.471Z,96066.28
2022-08-16T20:14:19.241Z,96058.63
2022-08-16T20:16:55.659Z,96053.88
2022-08-16T20:19:23.696Z,96060.72
2022-08-16T20:21:51.736Z,96064.66
2022-08-16T20:24:36.351Z,96067.75
2022-08-16T20:27:06.231Z,96072.50
2022-08-16T20:29:34.413Z,96076.66
2022-08-16T20:32:03.929Z,96075.63
2022-08-16T20:34:32.168Z,96069.00
2022-08-16T20:37:00.046Z,96073.34
2022-08-16T20:39:28.123Z,96078.34
2022-08-16T20:41:56.096Z,96074.41
2022-08-16T20:44:25.147Z,96073.81
2022-08-16T20:46:53.737Z,96077.31
2022-08-16T20:49:23.063Z,96080.00
2022-08-16T20:51:55.867Z,96082.69
2022-08-16T20:54:25.359Z,96082.06
2022-08-16T20:56:53.296Z,96077.09
2022-08-16T20:59:21.464Z,96076.22
2022-08-16T21:01:50.329Z,96078.50
2022-08-16T21:04:19.304Z,96079.13
2022-08-16T21:06:54.402Z,96074.97
2022-08-16T21:09:24.461Z,96080.75
2022-08-16T21:11:55.072Z,96076.81
2022-08-16T21:14:23.202Z,96079.28
2022-08-16T21:16:51.397Z,96078.44
2022-08-16T21:19:19.516Z,96079.44
2022-08-16T21:21:49.175Z,96086.84
2022-08-16T21:24:17.222Z,96091.19
2022-08-16T21:26:53.019Z,96096.97
2022-08-16T21:29:25.131Z,96089.91
2022-08-16T21:32:06.133Z,96090.94
2022-08-16T21:34:34.193Z,96087.22
2022-08-16T21:37:03.696Z,96096.50
2022-08-16T21:39:32.140Z,96094.59
2022-08-16T21:42:00.168Z,96105.34
2022-08-16T21:44:32.546Z,96091.66
2022-08-16T21:47:06.914Z,96095.75
2022-08-16T21:49:36.702Z,96099.50
2022-08-16T21:52:08.425Z,96092.84
2022-08-16T21:54:37.370Z,96088.47
2022-08-16T21:57:10.559Z,96088.31
2022-08-16T21:59:38.905Z,96092.16
2022-08-16T22:02:07.607Z,96098.97
2022-08-16T22:04:38.795Z,96094.19
2022-08-16T22:07:08.931Z,96094.59
2022-08-16T22:09:36.892Z,96098.06
2022-08-16T22:12:05.596Z,96109.00
2022-08-16T22:14:33.517Z,96103.41
2022-08-16T22:17:01.418Z,96107.09
2022-08-16T22:19:29.970Z,96104.81
2022-08-16T22:21:57.878Z,96110.56
2022-08-16T22:24:27.165Z,96107.84
2022-08-16T22:26:55.122Z,96109.44
2022-08-16T22:29:23.034Z,96108.19
2022-08-16T22:31:51.093Z,96106.50
2022-08-16T22:34:19.452Z,96110.22
2022-08-16T22:36:47.379Z,96107.72
2022-08-16T22:39:15.967Z,96108.31
2022-08-16T22:41:45.914Z,96118.97
2022-08-16T22:44:14.224Z,96120.19
2022-08-16T22:46:42.370Z,96128.25
2022-08-16T22:49:10.657Z,96117.50
2022-08-16T22:51:40.259Z,96111.88
2022-08-16T22:54:45.776Z,96106.91
2022-08-16T22:56:58.003Z,96110.34
2022-08-16T22:59:26.230Z,96111.56
2022-08-16T23:01:54.601Z,96104.75
2022-08-16T23:04:23.831Z,96104.56
2022-08-16T23:06:51.831Z,96103.84
2022-08-16T23:09:19.887Z,96104.88
2022-08-16T23:11:47.988Z,96100.72
2022-08-16T23:14:17.456Z,96093.63
2022-08-16T23:16:47.222Z,96087.84
2022-08-16T23:19:17.200Z,96087.63
2022-08-16T23:21:48.868Z,96088.03
2022-08-16T23:24:19.401Z,96093.78
2022-08-16T23:26:49.215Z,96078.25
2022-08-16T23:29:23.843Z,96082.16
2022-08-16T23:31:56.715Z,96081.03
2022-08-16T23:34:25.287Z,96082.91
2022-08-16T23:36:53.140Z,96079.75
2022-08-16T23:39:21.055Z,96077.94
2022-08-16T23:41:49.018Z,96074.59
2022-08-16T23:44:56.700Z,96071.69
2022-08-16T23:47:07.023Z,96058.28
2022-08-16T23:49:56.845Z,96048.22
2022-08-16T23:52:42.235Z,96058.28
2022-08-16T23:55:11.326Z,96058.06
2022-08-16T23:57:39.225Z,96064.22
